Estación Meteorológica Peña el Pijo (Robertgarden) [ 02/03/23 04:08:01 CET ]

Fecha Hora Presion(HPa) Temp (°C) Humedad % Rocio (°C) Viento ( m/s) Direccion Lluvia 1Hora(mm) Lluvia 24H(mm) LLuvia Total(mm)
2012-Mar-31 01:01:13 1006.500 3.7 64 -2.5         155.40
2012-Mar-31 02:01:12 1006.200 3.9 63 -2.6         155.40
2012-Mar-31 03:07:07 1005.700 3.5 64 -2.7         155.40
2012-Mar-31 04:01:12 1005.100 4.1 63 -2.4         155.40
2012-Mar-31 05:01:16 1004.400 3.5 63 -2.9         155.40
2012-Mar-31 06:01:13 1004.000 1.9 69 -3.2         155.40
2012-Mar-31 07:01:16 1003.900 1.9 72 -2.6         155.40
2012-Mar-31 08:01:13 1004.400 3.3 69 -1.8         155.40
2012-Mar-31 09:01:14 1004.400 4.2 66 -1.6         155.40
2012-Mar-31 10:01:11 1004.300 9.7 49 -0.5         155.40
2012-Mar-31 11:01:12 1004.400 13.0 40 -0.3         155.40
2012-Mar-31 12:01:18 1003.900 16.5 29 -1.7 1.1 NNE     155.40
2012-Mar-31 13:01:19 1003.400 19.9 23 -2.0 0.6 N     155.40
2012-Mar-31 14:01:17 1002.800 21.3 22 -1.4 2.7 N     155.40
2012-Mar-31 15:01:16 1002.400 21.7 23 -0.5 2.7 N     155.40
2012-Mar-31 16:01:14 1001.700 21.8 23 -0.5         155.40
2012-Mar-31 17:01:14 1001.300 18.6 26 -1.5 0.2 NNE     155.40
2012-Mar-31 18:01:14 1001.300 17.6 28 -1.3         155.40
2012-Mar-31 19:01:19 1001.300 16.9 31 -0.4         155.40
2012-Mar-31 20:01:17 1001.700 15.3 36 0.2         155.40
2012-Mar-31 21:01:16 1001.800 12.9 41 -0.1         155.40
2012-Mar-31 22:01:17 1002.700 11.6 48 0.9         155.40
2012-Mar-31 23:01:17 1003.200 10.8 53 1.6         155.40

Temperatura Máxima:21°    Temperatura Mínima:
Presión Máxima:1006.500 Hpa    Presión Mínima:1001.300 Hpa


Volver